Time;durP1;ratioP1;P1;durP2;ratioP2;P2;SDS_P1;SDS_P2;PMS_P1;PMS_P2;Temp;Humidity;BMP_temperature;BMP_pressure;BME280_temperature;BME280_humidity;BME280_pressure;Samples;Min_cycle;Max_cycle;Signal;HPM_P1;HPM_P2
2022/05/15 00:04:15;;;;;;;9.98;5.70;;;11.50;99.90;;;;;;10141968;29;20052;-88
2022/05/15 00:09:15;;;;;;;14.85;6.05;;;11.50;99.90;;;;;;10089761;29;20041;-89
2022/05/15 00:14:17;;;;;;;11.32;6.28;;;11.60;99.90;;;;;;10071788;29;20041;-89
2022/05/15 00:19:17;;;;;;;10.43;5.63;;;11.60;99.90;;;;;;10105587;29;20025;-90
2022/05/15 00:24:19;;;;;;;15.15;6.63;;;11.60;99.90;;;;;;10084844;29;20029;-89
2022/05/15 00:29:19;;;;;;;13.60;6.85;;;11.60;99.90;;;;;;10072215;29;20124;-88
2022/05/15 00:34:20;;;;;;;14.93;7.70;;;11.70;99.90;;;;;;10086153;29;20501;-89
2022/05/15 00:39:21;;;;;;;15.52;7.97;;;11.70;99.90;;;;;;10087243;29;20025;-89
2022/05/15 00:44:22;;;;;;;13.43;7.55;;;11.80;99.90;;;;;;10115686;29;20496;-88
2022/05/15 00:49:23;;;;;;;15.38;8.00;;;11.80;99.90;;;;;;10087572;29;20037;-89
2022/05/15 00:54:38;;;;;;;15.50;7.88;;;11.90;99.90;;;;;;10092106;29;20044;-89
2022/05/15 00:59:50;;;;;;;14.30;7.70;;;12.00;99.90;;;;;;10072927;29;20021;-88
2022/05/15 01:04:51;;;;;;;14.75;7.90;;;12.00;99.90;;;;;;10089500;29;20029;-89
2022/05/15 01:09:52;;;;;;;15.82;7.68;;;12.00;99.90;;;;;;10097366;29;20024;-89
2022/05/15 01:14:53;;;;;;;13.77;6.65;;;11.90;99.90;;;;;;10100971;29;20036;-88
2022/05/15 01:20:02;;;;;;;17.95;7.63;;;11.80;99.90;;;;;;10111313;29;20062;-89
2022/05/15 01:25:06;;;;;;;13.63;7.63;;;11.80;99.90;;;;;;10083857;29;20161;-90
2022/05/15 01:30:07;;;;;;;15.63;7.90;;;11.70;99.90;;;;;;10104799;29;20024;-89
2022/05/15 01:35:09;;;;;;;15.18;9.15;;;11.60;99.90;;;;;;10109694;29;20064;-90
2022/05/15 01:40:10;;;;;;;18.77;9.23;;;11.50;99.90;;;;;;10132223;29;20042;-88
2022/05/15 01:45:13;;;;;;;11.88;7.55;;;11.50;99.90;;;;;;10097896;29;20678;-89
2022/05/15 01:50:13;;;;;;;16.08;8.38;;;11.60;99.90;;;;;;10115492;29;20029;-89
2022/05/15 01:55:15;;;;;;;17.35;8.75;;;11.70;99.90;;;;;;10115415;29;20044;-88
2022/05/15 02:00:20;;;;;;;16.35;8.45;;;11.70;99.90;;;;;;10114770;29;20032;-89
2022/05/15 02:05:21;;;;;;;16.43;8.27;;;11.80;99.90;;;;;;10082692;29;20029;-88
2022/05/15 02:10:22;;;;;;;14.63;7.18;;;11.80;99.90;;;;;;10106472;29;20040;-91
2022/05/15 02:15:23;;;;;;;18.77;8.05;;;11.90;99.90;;;;;;10078750;29;20820;-89
2022/05/15 02:20:25;;;;;;;15.85;7.72;;;11.90;99.90;;;;;;10128282;29;20064;-88
2022/05/15 02:25:27;;;;;;;14.68;7.50;;;12.00;99.90;;;;;;10099584;29;20043;-90
2022/05/15 02:30:28;;;;;;;10.20;6.80;;;12.00;99.90;;;;;;10086786;29;20036;-89
2022/05/15 02:35:29;;;;;;;16.15;7.45;;;12.00;99.90;;;;;;10121099;29;20041;-87
2022/05/15 02:40:30;;;;;;;14.52;7.75;;;12.00;99.90;;;;;;10094924;29;20040;-89
2022/05/15 02:45:31;;;;;;;15.07;8.93;;;12.00;99.90;;;;;;10103392;29;20405;-89
2022/05/15 02:55:50;;;;;;;15.15;7.90;;;11.90;99.90;;;;;;10091894;29;20048;-89
2022/05/15 03:00:51;;;;;;;15.18;8.15;;;11.90;99.90;;;;;;10101518;29;20036;-90
2022/05/15 03:05:52;;;;;;;18.00;9.68;;;11.90;99.90;;;;;;10102581;29;20041;-89
2022/05/15 03:10:53;;;;;;;18.70;9.60;;;12.00;99.90;;;;;;10103357;29;20024;-90
2022/05/15 03:15:53;;;;;;;22.27;9.48;;;12.00;99.90;;;;;;10112872;29;20036;-91
2022/05/15 03:20:54;;;;;;;18.35;9.15;;;12.10;99.90;;;;;;10095972;29;20043;-89
2022/05/15 03:25:55;;;;;;;19.73;9.70;;;12.20;99.90;;;;;;10092866;29;20032;-90
2022/05/15 03:30:56;;;;;;;18.55;9.57;;;12.30;99.90;;;;;;10113106;29;20048;-89
2022/05/15 03:35:56;;;;;;;18.60;8.27;;;12.40;99.90;;;;;;10115306;29;20058;-89
2022/05/15 03:40:58;;;;;;;17.10;8.88;;;12.60;99.90;;;;;;10097249;29;20029;-89
2022/05/15 03:45:59;;;;;;;14.15;8.50;;;12.70;99.90;;;;;;10109946;29;20036;-88
2022/05/15 03:50:59;;;;;;;15.10;8.50;;;12.80;99.90;;;;;;10104366;29;20032;-88
2022/05/15 03:56:02;;;;;;;15.20;8.00;;;12.90;99.90;;;;;;10098443;29;20045;-89
2022/05/15 04:01:04;;;;;;;16.13;7.40;;;13.10;99.90;;;;;;10101588;29;20025;-90
2022/05/15 04:06:05;;;;;;;15.57;7.60;;;13.10;99.90;;;;;;10103694;29;20063;-90
2022/05/15 04:11:06;;;;;;;14.52;7.53;;;13.20;99.90;;;;;;10101614;29;20029;-90
2022/05/15 04:16:06;;;;;;;15.80;7.28;;;13.30;99.00;;;;;;10095844;29;20040;-90
2022/05/15 04:21:12;;;;;;;16.02;7.25;;;13.40;98.30;;;;;;10090778;29;20028;-92
2022/05/15 04:26:14;;;;;;;15.30;7.18;;;13.40;97.30;;;;;;10111239;29;20029;-92
2022/05/15 04:31:33;;;;;;;16.88;7.80;;;13.30;97.00;;;;;;10102837;29;20068;-91
2022/05/15 04:36:43;;;;;;;15.90;7.80;;;13.40;96.50;;;;;;10112272;29;20509;-92
2022/05/15 04:41:44;;;;;;;12.80;7.35;;;13.40;96.90;;;;;;10123876;29;20029;-89
2022/05/15 04:46:45;;;;;;;16.05;8.60;;;13.40;97.10;;;;;;10084778;29;20502;-88
2022/05/15 04:51:46;;;;;;;17.90;8.50;;;13.50;97.20;;;;;;10097837;29;20029;-90
2022/05/15 04:56:46;;;;;;;16.38;7.47;;;13.40;96.60;;;;;;10103534;29;20676;-89
2022/05/15 05:01:47;;;;;;;18.38;8.13;;;13.40;96.60;;;;;;10088915;29;20025;-90
2022/05/15 05:06:48;;;;;;;13.65;7.90;;;13.50;97.10;;;;;;10103424;29;20029;-89
2022/05/15 05:11:49;;;;;;;17.90;9.32;;;13.60;96.90;;;;;;10109752;29;20060;-90
2022/05/15 05:16:49;;;;;;;15.82;8.00;;;13.70;97.60;;;;;;10098148;29;20036;-88
2022/05/15 05:21:50;;;;;;;15.75;7.65;;;13.90;96.60;;;;;;10084856;29;20128;-88
2022/05/15 05:26:51;;;;;;;14.75;7.43;;;14.10;96.90;;;;;;10091001;29;20057;-88
2022/05/15 05:31:51;;;;;;;12.93;7.20;;;14.30;96.60;;;;;;10098000;29;20509;-89
2022/05/15 05:36:53;;;;;;;14.85;7.20;;;14.40;95.60;;;;;;10101178;29;20059;-87
2022/05/15 05:41:53;;;;;;;12.75;6.97;;;14.40;95.30;;;;;;10092302;29;20128;-89
2022/05/15 05:46:54;;;;;;;18.65;6.82;;;14.60;96.30;;;;;;10082802;29;20143;-87
2022/05/15 05:51:54;;;;;;;17.00;7.07;;;14.90;95.10;;;;;;10092415;29;20509;-89
2022/05/15 05:56:55;;;;;;;12.90;6.32;;;15.00;93.80;;;;;;10081984;29;20029;-88
2022/05/15 06:01:56;;;;;;;15.40;6.35;;;14.90;93.60;;;;;;10087439;29;20021;-87
2022/05/15 06:06:56;;;;;;;12.32;5.85;;;15.10;93.80;;;;;;10103650;29;20037;-88
2022/05/15 06:11:57;;;;;;;12.35;5.80;;;15.20;92.50;;;;;;10096883;29;20035;-89
2022/05/15 06:16:58;;;;;;;13.70;5.35;;;15.20;91.80;;;;;;10092585;29;20107;-88
2022/05/15 06:21:58;;;;;;;9.18;4.97;;;15.40;91.90;;;;;;10103005;29;20515;-92
2022/05/15 06:27:02;;;;;;;10.98;5.28;;;15.50;91.60;;;;;;10080907;29;20685;-91
2022/05/15 06:32:03;;;;;;;10.77;4.75;;;15.70;92.00;;;;;;10082041;29;20474;-89
2022/05/15 06:37:04;;;;;;;11.60;4.78;;;15.90;91.60;;;;;;10086883;29;20048;-89
2022/05/15 06:42:05;;;;;;;10.13;5.00;;;15.90;89.70;;;;;;10119509;29;20051;-88
2022/05/15 06:47:06;;;;;;;12.18;4.60;;;15.70;90.80;;;;;;10114545;29;20525;-86
2022/05/15 06:52:07;;;;;;;8.48;3.75;;;15.90;90.80;;;;;;10094157;29;20088;-87
2022/05/15 07:02:28;;;;;;;7.63;3.42;;;16.40;87.20;;;;;;10105887;29;20044;-89
2022/05/15 07:07:29;;;;;;;8.48;4.07;;;17.90;82.80;;;;;;10107764;29;20032;-86
2022/05/15 07:12:30;;;;;;;8.55;3.97;;;18.70;80.00;;;;;;10092534;29;20083;-85
2022/05/15 07:17:31;;;;;;;11.45;3.70;;;19.20;76.90;;;;;;10107695;29;20076;-87
2022/05/15 07:22:33;;;;;;;7.13;3.60;;;19.40;73.70;;;;;;10107260;29;20029;-87
2022/05/15 07:27:34;;;;;;;5.90;3.40;;;19.90;72.80;;;;;;10102616;29;20116;-86
2022/05/15 07:32:34;;;;;;;10.32;3.58;;;20.00;71.30;;;;;;10090496;29;20488;-85
2022/05/15 07:37:35;;;;;;;11.52;3.08;;;19.40;70.80;;;;;;10104898;29;20135;-86
2022/05/15 07:42:38;;;;;;;8.25;3.20;;;18.80;71.70;;;;;;10111727;29;20024;-88
2022/05/15 07:47:39;;;;;;;9.73;3.53;;;18.40;73.50;;;;;;10095365;29;20021;-84
2022/05/15 07:52:39;;;;;;;5.82;3.20;;;18.50;73.40;;;;;;10103325;29;20426;-85
2022/05/15 07:57:40;;;;;;;6.72;2.65;;;18.40;75.40;;;;;;10096794;29;20036;-85
2022/05/15 08:02:41;;;;;;;5.05;2.72;;;18.50;74.10;;;;;;10098614;29;20127;-85
2022/05/15 08:08:00;;;;;;;8.60;2.85;;;18.80;72.80;;;;;;10089302;29;20040;-87
2022/05/15 08:13:01;;;;;;;10.27;3.60;;;19.00;71.60;;;;;;10099207;29;20065;-87
2022/05/15 08:23:33;;;;;;;6.47;2.83;;;18.60;74.90;;;;;;10100055;29;20044;-85
2022/05/15 08:28:34;;;;;;;8.10;2.78;;;18.90;72.00;;;;;;10117418;29;20033;-86
2022/05/15 08:33:37;;;;;;;7.03;2.47;;;18.90;71.40;;;;;;10081730;29;20120;-84
2022/05/15 08:38:38;;;;;;;8.55;2.83;;;18.60;71.30;;;;;;10088192;29;20045;-87
2022/05/15 08:43:43;;;;;;;7.45;2.30;;;18.30;71.30;;;;;;10092307;29;20037;-88
2022/05/15 08:48:44;;;;;;;6.70;3.22;;;18.50;71.30;;;;;;10088528;29;20037;-87
2022/05/15 08:53:49;;;;;;;7.40;2.70;;;19.20;68.80;;;;;;10105744;29;20020;-86
2022/05/15 08:58:54;;;;;;;9.87;2.90;;;19.70;67.90;;;;;;10117105;29;20044;-87
2022/05/15 09:03:57;;;;;;;4.88;2.25;;;19.80;66.30;;;;;;10110621;29;20139;-86
2022/05/15 09:09:49;;;;;;;7.07;2.55;;;18.90;67.90;;;;;;10123138;29;20036;-87
2022/05/15 09:15:11;;;;;;;9.32;2.58;;;19.30;70.50;;;;;;10110671;29;20148;-85
2022/05/15 09:20:14;;;;;;;5.90;2.03;;;20.20;69.00;;;;;;10104498;29;20029;-86
2022/05/15 09:25:20;;;;;;;6.15;2.65;;;20.40;64.20;;;;;;10092014;29;20025;-85
2022/05/15 09:30:21;;;;;;;6.03;2.28;;;19.50;66.70;;;;;;10113965;29;20115;-87
2022/05/15 09:35:41;;;;;;;3.58;2.30;;;20.00;66.50;;;;;;10106472;29;20591;-87
2022/05/15 09:46:16;;;;;;;3.88;1.65;;;21.40;63.00;;;;;;10111095;29;20727;-85
2022/05/15 09:51:27;;;;;;;5.17;1.73;;;20.20;61.40;;;;;;10086646;29;20033;-86
2022/05/15 09:56:31;;;;;;;4.53;1.85;;;20.10;63.60;;;;;;10119479;29;20601;-82
2022/05/15 10:01:34;;;;;;;4.13;1.50;;;20.60;62.00;;;;;;10139735;29;20037;-85
2022/05/15 10:06:49;;;;;;;4.05;1.75;;;21.10;60.10;;;;;;10118566;29;20032;-84
2022/05/15 10:12:01;;;;;;;5.97;2.22;;;21.10;60.30;;;;;;10095495;29;20069;-85
2022/05/15 10:17:03;;;;;;;5.53;2.28;;;21.70;59.50;;;;;;10122078;29;20053;-86
2022/05/15 10:22:37;;;;;;;5.95;2.42;;;21.30;60.70;;;;;;10093439;29;20039;-84
2022/05/15 10:27:43;;;;;;;6.13;2.20;;;21.30;58.00;;;;;;10090223;29;20532;-86
2022/05/15 10:33:04;;;;;;;4.97;2.40;;;21.90;57.90;;;;;;10139789;29;20065;-87
2022/05/15 10:38:31;;;;;;;3.88;1.77;;;22.30;58.00;;;;;;10097589;29;20044;-86
2022/05/15 10:43:41;;;;;;;5.28;1.92;;;22.60;60.30;;;;;;10066937;29;20051;-87
2022/05/15 10:49:01;;;;;;;5.28;1.55;;;22.40;57.90;;;;;;10149219;29;20049;-85
2022/05/15 10:59:57;;;;;;;6.93;1.52;;;21.70;57.60;;;;;;10135774;29;20052;-86
2022/05/15 11:05:11;;;;;;;2.80;1.17;;;21.80;56.20;;;;;;10109063;29;20629;-87
2022/05/15 11:10:27;;;;;;;3.60;1.20;;;21.70;56.40;;;;;;10107869;29;20059;-88
2022/05/15 11:15:59;;;;;;;4.90;1.65;;;21.60;56.00;;;;;;10094922;29;20039;-86
2022/05/15 11:21:30;;;;;;;5.47;1.75;;;21.60;58.00;;;;;;10107495;29;20127;-87
2022/05/15 11:26:49;;;;;;;5.68;1.80;;;21.40;55.90;;;;;;10095611;29;20042;-88
2022/05/15 11:31:55;;;;;;;4.45;1.35;;;21.10;59.60;;;;;;10108194;29;20065;-86
2022/05/15 11:36:56;;;;;;;2.38;1.20;;;21.40;55.50;;;;;;10113131;29;20036;-84
2022/05/15 11:42:14;;;;;;;2.95;1.25;;;21.10;55.60;;;;;;10111503;29;20029;-87
2022/05/15 11:47:21;;;;;;;5.18;1.02;;;21.10;58.90;;;;;;10102058;29;20017;-86
2022/05/15 11:52:50;;;;;;;5.45;1.45;;;21.30;57.40;;;;;;10107601;29;20032;-86
2022/05/15 11:57:50;;;;;;;2.97;1.60;;;20.70;59.10;;;;;;10101423;29;20065;-88
2022/05/15 12:02:53;;;;;;;4.38;1.27;;;20.20;58.90;;;;;;10097569;29;20708;-86
2022/05/15 12:07:57;;;;;;;5.28;1.23;;;20.20;59.80;;;;;;10089776;29;20745;-85
2022/05/15 12:13:28;;;;;;;2.80;1.10;;;20.10;60.80;;;;;;10129744;29;20071;-87
2022/05/15 12:18:32;;;;;;;4.22;1.13;;;20.60;57.40;;;;;;10090544;29;20755;-85
2022/05/15 12:23:38;;;;;;;4.30;1.33;;;21.20;55.60;;;;;;10111106;29;20409;-86
2022/05/15 12:29:00;;;;;;;3.58;1.50;;;21.10;54.60;;;;;;10121301;29;20095;-86
2022/05/15 12:34:10;;;;;;;2.53;1.20;;;21.90;56.20;;;;;;10102957;29;20065;-85
2022/05/15 12:39:20;;;;;;;3.78;1.23;;;22.80;53.30;;;;;;10108578;29;20029;-86
2022/05/15 12:44:33;;;;;;;1.48;1.08;;;23.10;53.30;;;;;;10078304;29;20490;-88
2022/05/15 12:49:36;;;;;;;3.47;1.25;;;23.30;51.00;;;;;;10119220;29;20124;-86
2022/05/15 12:54:37;;;;;;;2.33;0.80;;;23.20;51.20;;;;;;10069892;29;20097;-84
2022/05/15 12:59:43;;;;;;;2.35;1.00;;;22.70;53.20;;;;;;10089665;29;20033;-88
2022/05/15 13:04:49;;;;;;;4.68;1.50;;;23.30;52.20;;;;;;10119560;29;20028;-86
2022/05/15 13:10:08;;;;;;;4.07;1.77;;;23.50;52.00;;;;;;10109765;29;20028;-86
2022/05/15 13:15:10;;;;;;;3.25;1.38;;;23.70;51.00;;;;;;10135891;29;20039;-86
2022/05/15 13:20:15;;;;;;;4.05;1.10;;;23.90;52.30;;;;;;10129968;29;20523;-85
2022/05/15 13:25:22;;;;;;;;;;;23.60;51.30;;;;;;10094227;29;20036;-86
2022/05/15 13:30:25;;;;;;;1.85;0.95;;;23.50;51.90;;;;;;10128560;29;20006;-88
2022/05/15 13:35:39;;;;;;;3.50;1.80;;;22.80;49.10;;;;;;10128502;29;20140;-87
2022/05/15 13:46:17;;;;;;;;;;;22.40;51.70;;;;;;10136623;29;20544;-86
2022/05/15 13:51:39;;;;;;;2.47;1.23;;;22.50;50.80;;;;;;10130401;29;19919;-87
2022/05/15 13:56:40;;;;;;;2.58;1.15;;;22.50;50.00;;;;;;10080431;29;20100;-88
2022/05/15 14:01:42;;;;;;;1.70;0.93;;;22.50;51.70;;;;;;10108735;29;20654;-86
2022/05/15 14:06:46;;;;;;;2.30;0.93;;;22.30;51.30;;;;;;10106134;29;20060;-86
2022/05/15 14:12:01;;;;;;;1.45;0.98;;;22.20;54.00;;;;;;10122779;29;20032;-86
2022/05/15 14:17:03;;;;;;;3.38;1.20;;;22.30;52.20;;;;;;10118128;29;20036;-87
2022/05/15 14:22:04;;;;;;;5.28;0.95;;;22.20;52.30;;;;;;10141255;29;20028;-86
2022/05/15 14:27:06;;;;;;;2.65;1.05;;;22.10;51.20;;;;;;10101572;29;20031;-88
2022/05/15 14:32:09;;;;;;;3.25;1.00;;;21.90;49.80;;;;;;10110725;29;20060;-86
2022/05/15 14:37:10;;;;;;;2.78;0.93;;;21.40;50.50;;;;;;10112729;29;20404;-87
2022/05/15 14:42:11;;;;;;;4.05;0.93;;;21.00;51.30;;;;;;10127948;29;20031;-88
2022/05/15 14:47:19;;;;;;;1.58;0.95;;;21.00;54.70;;;;;;10115592;29;20029;-86
2022/05/15 14:52:29;;;;;;;3.22;1.00;;;21.00;53.90;;;;;;10096627;29;20043;-86
2022/05/15 14:57:29;;;;;;;2.40;0.93;;;21.00;53.50;;;;;;10141859;29;20048;-86
2022/05/15 15:02:32;;;;;;;3.05;0.82;;;21.10;53.30;;;;;;10097223;29;20397;-87
2022/05/15 15:07:33;;;;;;;4.60;0.98;;;20.90;51.80;;;;;;10149952;29;20028;-88
2022/05/15 15:12:33;;;;;;;1.85;1.02;;;20.80;53.20;;;;;;10107730;29;20036;-87
2022/05/15 15:17:34;;;;;;;2.83;1.15;;;20.50;53.90;;;;;;10111926;29;20040;-89
2022/05/15 15:22:35;;;;;;;2.75;1.27;;;20.40;52.90;;;;;;10084273;29;20024;-87
2022/05/15 15:27:36;;;;;;;2.25;0.90;;;20.40;55.40;;;;;;10130205;29;20513;-88
2022/05/15 15:32:36;;;;;;;1.08;0.80;;;20.40;54.00;;;;;;10105092;29;20068;-88
2022/05/15 15:42:57;;;;;;;2.55;0.85;;;20.40;53.20;;;;;;10103151;29;20405;-90
2022/05/15 15:47:57;;;;;;;1.17;0.63;;;20.40;54.00;;;;;;10094203;29;20434;-86
2022/05/15 15:52:59;;;;;;;3.35;0.93;;;20.40;54.10;;;;;;10086775;29;20032;-88
2022/05/15 15:58:01;;;;;;;2.85;0.98;;;20.30;55.50;;;;;;10101181;29;20049;-89
2022/05/15 16:03:04;;;;;;;2.13;1.10;;;20.30;54.70;;;;;;10103598;29;20148;-89
2022/05/15 16:08:09;;;;;;;2.53;0.70;;;20.20;56.30;;;;;;10114019;29;20028;-90
2022/05/15 16:13:10;;;;;;;2.63;0.90;;;20.20;55.80;;;;;;10094087;29;20044;-90
2022/05/15 16:18:18;;;;;;;3.08;0.95;;;20.00;55.30;;;;;;10105420;29;20032;-87
2022/05/15 16:23:23;;;;;;;1.25;0.85;;;19.80;55.50;;;;;;10120441;29;20064;-87
2022/05/15 16:28:25;;;;;;;2.60;1.25;;;19.80;55.30;;;;;;10106902;29;20037;-89
2022/05/15 16:33:26;;;;;;;2.03;1.00;;;19.70;55.40;;;;;;10117517;29;20092;-89
2022/05/15 16:38:28;;;;;;;2.40;1.00;;;19.60;56.70;;;;;;10096987;29;20538;-88
2022/05/15 16:43:29;;;;;;;2.58;1.17;;;19.50;55.10;;;;;;10096654;29;20783;-88
2022/05/15 16:48:30;;;;;;;2.90;1.10;;;19.40;55.90;;;;;;10118158;29;20056;-87
2022/05/15 16:53:32;;;;;;;3.22;0.80;;;19.30;55.50;;;;;;10094204;29;20123;-88
2022/05/15 16:58:33;;;;;;;1.52;0.85;;;19.20;55.30;;;;;;10094142;29;20089;-88
2022/05/15 17:03:34;;;;;;;1.20;0.80;;;19.10;56.20;;;;;;10079776;29;20389;-87
2022/05/15 17:08:35;;;;;;;2.35;0.85;;;19.00;56.30;;;;;;10092112;29;20056;-89
2022/05/15 17:13:36;;;;;;;1.73;0.80;;;18.90;57.40;;;;;;10079613;29;20033;-88
2022/05/15 17:18:38;;;;;;;1.90;0.70;;;18.70;56.90;;;;;;10118711;23;20053;-87
2022/05/15 17:23:39;;;;;;;1.55;0.95;;;18.50;57.00;;;;;;10090306;29;20032;-88
2022/05/15 17:34:15;;;;;;;3.00;0.85;;;18.30;57.90;;;;;;10124816;29;20041;-88
2022/05/15 17:39:17;;;;;;;1.73;0.65;;;18.10;58.10;;;;;;10116928;29;20051;-87
2022/05/15 17:44:18;;;;;;;2.22;0.80;;;17.90;58.50;;;;;;10099814;29;20037;-90
2022/05/15 17:49:18;;;;;;;1.85;0.80;;;17.70;58.60;;;;;;10098090;29;20378;-88
2022/05/15 17:54:19;;;;;;;2.33;0.88;;;17.60;58.90;;;;;;10085244;29;20816;-87
2022/05/15 17:59:20;;;;;;;2.80;1.38;;;17.40;59.20;;;;;;10064365;29;20086;-88
2022/05/15 18:04:21;;;;;;;2.60;1.00;;;17.10;60.30;;;;;;10071783;29;20124;-87
2022/05/15 18:09:22;;;;;;;4.28;1.08;;;16.80;61.60;;;;;;10063718;29;20034;-89
2022/05/15 18:14:23;;;;;;;3.08;1.10;;;16.30;62.50;;;;;;10061919;29;20129;-87
2022/05/15 18:19:23;;;;;;;1.80;0.80;;;15.90;65.20;;;;;;10068976;29;20573;-86
2022/05/15 18:24:24;;;;;;;1.15;0.95;;;15.30;67.80;;;;;;10074051;29;20078;-88
2022/05/15 18:29:44;;;;;;;1.60;0.90;;;14.90;68.30;;;;;;10074119;29;20044;-89
2022/05/15 18:34:45;;;;;;;2.53;0.90;;;14.50;69.90;;;;;;10075360;29;20053;-87
2022/05/15 18:39:46;;;;;;;2.92;1.20;;;14.00;71.20;;;;;;10068685;29;20051;-88
2022/05/15 18:44:47;;;;;;;2.95;1.00;;;13.70;72.20;;;;;;10072184;29;20061;-85
2022/05/15 18:55:08;;;;;;;6.20;1.42;;;13.30;73.30;;;;;;10086699;29;20052;-88
2022/05/15 19:00:09;;;;;;;1.95;1.13;;;13.20;73.60;;;;;;10066975;29;20025;-89
2022/05/15 19:05:10;;;;;;;2.72;1.88;;;13.00;74.70;;;;;;10069070;29;20048;-88
2022/05/15 19:10:12;;;;;;;2.47;1.25;;;12.80;74.80;;;;;;10066874;29;20123;-88
2022/05/15 19:15:13;;;;;;;3.00;1.42;;;12.70;74.80;;;;;;10072511;29;20037;-88
2022/05/15 19:20:16;;;;;;;3.25;1.27;;;12.50;75.20;;;;;;10066876;29;20494;-87
2022/05/15 19:25:18;;;;;;;4.07;2.03;;;12.40;76.20;;;;;;10071677;29;20116;-90
2022/05/15 19:30:19;;;;;;;4.22;1.42;;;12.20;76.90;;;;;;10066447;29;20443;-89
2022/05/15 19:35:20;;;;;;;2.67;1.20;;;12.10;77.00;;;;;;10073954;29;20036;-89
2022/05/15 19:40:22;;;;;;;5.22;1.50;;;12.10;77.10;;;;;;10069079;29;20140;-89
2022/05/15 19:45:23;;;;;;;5.10;1.60;;;12.00;77.60;;;;;;10071717;29;20068;-89
2022/05/15 19:50:24;;;;;;;7.57;2.00;;;12.00;77.50;;;;;;10070763;29;20040;-89
2022/05/15 19:55:25;;;;;;;7.25;1.83;;;11.90;77.80;;;;;;10070522;29;20391;-88
2022/05/15 20:00:26;;;;;;;5.47;2.28;;;11.90;78.10;;;;;;10085778;29;20032;-89
2022/05/15 20:16:05;;;;;;;4.47;1.60;;;11.70;78.40;;;;;;10044302;29;20057;-87
2022/05/15 20:21:09;;;;;;;5.90;1.75;;;11.70;79.30;;;;;;10041522;29;20034;-89
2022/05/15 20:26:16;;;;;;;6.32;1.63;;;11.60;79.20;;;;;;10051957;29;20506;-90
2022/05/15 20:31:32;;;;;;;4.38;1.45;;;11.60;79.70;;;;;;10047309;29;20037;-89
2022/05/15 20:36:36;;;;;;;3.92;1.23;;;11.60;79.70;;;;;;10031907;29;20156;-88
2022/05/15 20:41:37;;;;;;;2.78;1.45;;;11.60;79.60;;;;;;10031805;29;20029;-91
2022/05/15 20:46:38;;;;;;;1.90;1.17;;;11.50;79.70;;;;;;10031996;29;20030;-89
2022/05/15 20:51:40;;;;;;;1.85;1.40;;;11.50;80.40;;;;;;10029783;29;20175;-90
2022/05/15 20:56:42;;;;;;;4.93;1.92;;;11.40;80.20;;;;;;10031466;29;20485;-90
2022/05/15 21:01:44;;;;;;;4.22;1.40;;;11.50;80.40;;;;;;10048467;29;20488;-91
2022/05/15 21:06:45;;;;;;;4.35;1.38;;;11.40;80.70;;;;;;10072010;23;20064;-89
2022/05/15 21:11:47;;;;;;;2.60;1.40;;;11.40;80.40;;;;;;10102915;29;20063;-88
2022/05/15 21:16:48;;;;;;;3.13;1.30;;;11.40;80.50;;;;;;10089819;29;20055;-89
2022/05/15 21:21:48;;;;;;;2.70;1.55;;;11.40;81.00;;;;;;10082562;29;20047;-89
2022/05/15 21:26:49;;;;;;;6.68;1.90;;;11.30;81.10;;;;;;10095748;29;20043;-89
2022/05/15 21:31:50;;;;;;;2.35;1.45;;;11.20;81.00;;;;;;10085101;29;20044;-88
2022/05/15 21:36:50;;;;;;;4.55;1.75;;;11.20;81.40;;;;;;10057607;29;20049;-88
2022/05/15 21:47:10;;;;;;;2.78;1.33;;;11.00;81.40;;;;;;10086455;29;20074;-88
2022/05/15 21:52:11;;;;;;;2.63;1.35;;;11.00;82.00;;;;;;10054083;29;20025;-88
2022/05/15 21:57:12;;;;;;;2.25;1.35;;;11.10;81.90;;;;;;10067126;29;20045;-89
2022/05/15 22:02:13;;;;;;;2.88;1.52;;;11.10;82.30;;;;;;10038491;29;20042;-89
2022/05/15 22:07:14;;;;;;;2.03;1.30;;;11.00;82.00;;;;;;10067749;29;20509;-89
2022/05/15 22:12:14;;;;;;;2.35;1.48;;;10.90;82.40;;;;;;10039578;29;20507;-89
2022/05/15 22:17:17;;;;;;;2.08;1.33;;;11.00;82.30;;;;;;10039388;29;20046;-89
2022/05/15 22:22:17;;;;;;;1.83;1.30;;;10.90;82.60;;;;;;10038259;29;20128;-89
2022/05/15 22:27:19;;;;;;;2.70;1.70;;;10.90;83.10;;;;;;10038439;29;20037;-88
2022/05/15 22:32:20;;;;;;;3.22;1.60;;;10.80;83.80;;;;;;10037988;29;20041;-89
2022/05/15 22:37:29;;;;;;;2.35;1.30;;;10.70;83.80;;;;;;10070869;29;20093;-89
2022/05/15 22:42:30;;;;;;;4.03;1.30;;;10.60;84.50;;;;;;10069388;29;20064;-89
2022/05/15 22:47:31;;;;;;;2.50;1.38;;;10.50;84.50;;;;;;10044726;29;20616;-88
2022/05/15 22:52:32;;;;;;;2.92;1.73;;;10.40;84.90;;;;;;10051547;29;20422;-88
2022/05/15 22:57:33;;;;;;;3.23;1.90;;;10.40;85.20;;;;;;10045513;29;20049;-88
2022/05/15 23:02:34;;;;;;;3.33;1.57;;;10.40;85.50;;;;;;10091246;23;20073;-89
2022/05/15 23:07:37;;;;;;;3.63;1.63;;;10.40;85.70;;;;;;10076032;29;20468;-88
2022/05/15 23:12:38;;;;;;;3.13;1.73;;;10.40;86.40;;;;;;10073389;29;20129;-90
2022/05/15 23:17:39;;;;;;;3.93;1.80;;;10.20;86.70;;;;;;10074245;29;20438;-88
2022/05/15 23:22:40;;;;;;;3.53;1.83;;;10.20;87.30;;;;;;10074689;29;20120;-88
2022/05/15 23:27:41;;;;;;;3.33;1.93;;;10.00;88.30;;;;;;10068639;29;20033;-87
2022/05/15 23:32:42;;;;;;;3.43;1.67;;;9.90;89.40;;;;;;10074412;29;20037;-88
2022/05/15 23:37:43;;;;;;;5.07;2.20;;;9.80;89.80;;;;;;10074800;29;20048;-88
2022/05/15 23:42:44;;;;;;;5.33;2.47;;;9.70;89.70;;;;;;10063257;29;20422;-88
2022/05/15 23:47:46;;;;;;;6.60;2.90;;;9.70;90.40;;;;;;10076211;29;20692;-89
2022/05/15 23:52:47;;;;;;;6.23;2.50;;;9.60;90.80;;;;;;10072263;29;20379;-88
2022/05/15 23:57:50;;;;;;;4.70;2.40;;;9.50;91.10;;;;;;10072840;29;20041;-90
